Terminal Aerodrome Forecast
Issued by NWS Bismarck, ND

Home | Current Version | Previous Version | Text Only | Print | Product List | Glossary On
Versions: 1 2 3 4 5 6 7 8 9 10 11 12 13 14
959
FTUS43 KBIS 251720
TAFBIS
TAF
KBIS 251720Z 2518/2618 01015KT P6SM VCTS SCT110CB BKN200
     FM252000 01015KT P6SM FEW120 SCT200
     FM260500 02004KT P6SM FEW140 FEW250=

USA.gov is the U.S. government's official web portal to all federal, state and local government web resources and services.